Time;durP1;ratioP1;P1;durP2;ratioP2;P2;SDS_P1;SDS_P2;PMS_P1;PMS_P2;Temp;Humidity;BMP_temperature;BMP_pressure;BME280_temperature;BME280_humidity;BME280_pressure;Samples;Min_cycle;Max_cycle;Signal;HPM_P1;HPM_P2
2023/10/25 00:00:34;;;;;;;13.10;7.20;;;9.80;99.90;;;;;;4984317;28;20052;-80
2023/10/25 00:02:59;;;;;;;15.75;6.65;;;9.80;99.90;;;;;;4979284;28;20034;-81
2023/10/25 00:05:30;;;;;;;13.75;6.75;;;9.80;99.90;;;;;;4986238;28;20049;-80
2023/10/25 00:07:55;;;;;;;15.82;7.10;;;9.80;99.90;;;;;;4986115;28;20054;-80
2023/10/25 00:10:21;;;;;;;14.90;6.75;;;9.70;99.90;;;;;;4964618;28;20808;-81
2023/10/25 00:12:47;;;;;;;14.73;6.90;;;9.70;99.90;;;;;;4982551;28;20458;-81
2023/10/25 00:15:12;;;;;;;16.15;6.25;;;9.80;99.90;;;;;;4969521;28;20491;-80
2023/10/25 00:17:38;;;;;;;13.70;5.90;;;9.70;99.90;;;;;;4969975;28;20041;-81
2023/10/25 00:20:05;;;;;;;10.73;6.25;;;9.70;99.90;;;;;;4984929;28;20236;-81
2023/10/25 00:22:31;;;;;;;19.13;6.22;;;9.70;99.90;;;;;;4970431;28;20064;-80
2023/10/25 00:24:56;;;;;;;12.82;6.20;;;9.70;99.90;;;;;;4984095;28;20360;-80
2023/10/25 00:27:22;;;;;;;15.77;5.78;;;9.70;99.90;;;;;;4966889;28;20537;-80
2023/10/25 00:29:48;;;;;;;11.18;5.80;;;9.70;99.90;;;;;;4979772;28;20542;-81
2023/10/25 00:32:14;;;;;;;11.82;6.15;;;9.70;99.90;;;;;;4964031;28;20484;-80
2023/10/25 00:34:41;;;;;;;15.75;6.18;;;9.60;99.90;;;;;;4993235;28;20050;-80
2023/10/25 00:37:06;;;;;;;17.45;6.13;;;9.90;99.90;;;;;;4984560;28;20237;-81
2023/10/25 00:39:32;;;;;;;14.55;6.20;;;9.80;99.90;;;;;;4995379;28;20564;-81
2023/10/25 00:41:58;;;;;;;15.35;5.97;;;9.60;99.90;;;;;;4973728;28;20568;-80
2023/10/25 00:44:24;;;;;;;13.00;6.15;;;9.60;99.90;;;;;;4980672;28;20473;-80
2023/10/25 00:46:53;;;;;;;12.20;6.13;;;9.60;99.90;;;;;;4968488;28;20376;-81
2023/10/25 00:49:19;;;;;;;12.63;5.97;;;9.60;99.90;;;;;;4984353;28;20087;-80
2023/10/25 00:51:45;;;;;;;12.00;5.60;;;9.60;99.90;;;;;;4970674;28;20037;-80
2023/10/25 00:54:11;;;;;;;12.38;5.20;;;9.60;99.90;;;;;;4988604;28;20314;-80
2023/10/25 00:56:37;;;;;;;12.52;6.38;;;9.60;99.90;;;;;;4981924;28;20046;-80
2023/10/25 00:59:04;;;;;;;12.65;5.93;;;9.50;99.90;;;;;;4985925;28;20042;-81
2023/10/25 01:01:30;;;;;;;16.05;5.97;;;9.50;99.90;;;;;;4969518;28;20585;-80
2023/10/25 01:03:56;;;;;;;12.18;5.28;;;9.50;99.90;;;;;;4970985;28;20046;-80
2023/10/25 01:06:22;;;;;;;12.23;5.57;;;9.50;99.90;;;;;;4971325;28;20421;-80
2023/10/25 01:08:48;;;;;;;13.48;5.00;;;9.50;99.90;;;;;;4966592;28;20427;-81
2023/10/25 01:11:15;;;;;;;15.10;5.63;;;9.50;99.90;;;;;;4976504;28;20053;-80
2023/10/25 01:13:41;;;;;;;12.52;4.85;;;9.40;99.90;;;;;;4970983;28;20054;-80
2023/10/25 01:16:07;;;;;;;9.73;4.70;;;9.40;99.90;;;;;;4971346;28;20100;-80
2023/10/25 01:18:32;;;;;;;14.70;5.05;;;9.60;99.90;;;;;;4967127;28;20037;-81
2023/10/25 01:20:58;;;;;;;14.02;5.25;;;9.40;99.90;;;;;;4968692;28;20294;-80
2023/10/25 01:23:24;;;;;;;12.77;4.82;;;9.40;99.90;;;;;;4969066;28;20038;-80
2023/10/25 01:25:50;;;;;;;14.32;5.43;;;9.40;99.90;;;;;;4983666;28;20048;-81
2023/10/25 01:28:16;;;;;;;10.18;4.97;;;9.60;99.90;;;;;;4968817;28;20069;-80
2023/10/25 01:30:42;;;;;;;11.15;4.82;;;9.50;99.90;;;;;;4968926;28;20550;-80
2023/10/25 01:33:08;;;;;;;10.88;4.30;;;9.40;99.90;;;;;;4965880;28;20070;-80
2023/10/25 01:35:35;;;;;;;11.80;5.05;;;9.40;99.90;;;;;;4979378;28;20043;-80
2023/10/25 01:38:01;;;;;;;14.10;4.60;;;9.30;99.90;;;;;;4969006;28;20045;-80
2023/10/25 01:40:27;;;;;;;10.60;4.00;;;9.30;99.90;;;;;;4971318;28;20045;-80
2023/10/25 01:42:54;;;;;;;11.57;4.80;;;9.30;99.90;;;;;;4998435;28;20073;-80
2023/10/25 01:45:23;;;;;;;8.82;4.40;;;9.40;99.90;;;;;;5002424;28;20400;-80
2023/10/25 01:47:49;;;;;;;13.30;4.20;;;9.30;99.90;;;;;;4989129;28;20053;-80
2023/10/25 01:50:15;;;;;;;9.40;4.13;;;9.30;99.90;;;;;;4980413;28;20046;-80
2023/10/25 01:52:40;;;;;;;12.70;4.55;;;9.30;99.90;;;;;;4981929;28;20562;-80
2023/10/25 01:55:06;;;;;;;13.30;5.13;;;9.30;99.90;;;;;;4975748;28;20060;-80
2023/10/25 01:57:33;;;;;;;8.80;4.55;;;9.30;99.90;;;;;;4974200;28;20053;-81
2023/10/25 01:59:59;;;;;;;10.70;4.50;;;9.30;99.90;;;;;;4991505;28;20061;-80
2023/10/25 02:02:24;;;;;;;12.77;5.63;;;9.30;99.90;;;;;;4997021;28;20054;-80
2023/10/25 02:04:51;;;;;;;11.75;5.10;;;9.30;99.90;;;;;;4999422;28;20058;-80
2023/10/25 02:07:16;;;;;;;15.93;5.72;;;9.20;99.90;;;;;;4990675;28;20053;-80
2023/10/25 02:09:42;;;;;;;13.43;4.90;;;9.30;99.90;;;;;;4992206;28;20054;-80
2023/10/25 02:12:09;;;;;;;13.77;5.50;;;9.30;99.90;;;;;;4993755;28;20091;-80
2023/10/25 02:14:36;;;;;;;9.52;5.13;;;9.20;99.90;;;;;;4993879;28;20053;-79
2023/10/25 02:17:02;;;;;;;15.25;5.70;;;9.20;99.90;;;;;;4994179;28;20068;-79
2023/10/25 02:19:27;;;;;;;12.13;5.82;;;9.20;99.90;;;;;;4991772;28;20410;-81
2023/10/25 02:21:54;;;;;;;13.48;6.20;;;9.20;99.90;;;;;;4975111;28;20038;-81
2023/10/25 02:24:20;;;;;;;12.98;6.00;;;9.10;99.90;;;;;;4991017;28;20055;-80
2023/10/25 02:26:46;;;;;;;15.85;6.72;;;9.10;99.90;;;;;;4974861;28;20084;-82
2023/10/25 02:29:12;;;;;;;18.95;6.55;;;9.10;99.90;;;;;;4974627;28;20050;-79
2023/10/25 02:31:38;;;;;;;16.25;5.72;;;9.10;99.90;;;;;;4974409;28;20081;-79
2023/10/25 02:34:04;;;;;;;15.68;6.75;;;9.00;99.90;;;;;;4990550;28;20054;-80
2023/10/25 02:36:33;;;;;;;17.02;6.38;;;9.10;99.90;;;;;;4999724;28;20038;-80
2023/10/25 02:38:59;;;;;;;17.75;6.60;;;9.30;99.90;;;;;;4982749;28;20042;-80
2023/10/25 02:41:25;;;;;;;16.85;6.20;;;9.00;99.90;;;;;;4981728;28;20045;-80
2023/10/25 02:43:59;;;;;;;15.45;6.80;;;9.00;99.90;;;;;;4995928;28;20054;-80
2023/10/25 02:46:25;;;;;;;17.85;6.53;;;9.50;99.90;;;;;;5031752;28;20093;-80
2023/10/25 02:48:52;;;;;;;14.18;6.20;;;9.00;99.90;;;;;;5001069;28;20038;-80
2023/10/25 02:51:18;;;;;;;16.60;6.93;;;9.00;99.90;;;;;;4994481;28;20046;-80
2023/10/25 02:53:43;;;;;;;14.27;7.75;;;9.00;99.90;;;;;;5014966;28;20057;-80
2023/10/25 02:56:09;;;;;;;17.45;7.68;;;8.90;99.90;;;;;;4994782;28;20130;-80
2023/10/25 02:58:35;;;;;;;16.40;8.00;;;8.90;99.90;;;;;;4991357;28;20117;-79
2023/10/25 03:01:01;;;;;;;14.23;7.32;;;8.90;99.90;;;;;;4959932;28;20051;-80
2023/10/25 03:03:28;;;;;;;18.67;7.82;;;8.90;99.90;;;;;;4984692;28;20046;-81
2023/10/25 03:05:54;;;;;;;16.10;8.57;;;8.90;99.90;;;;;;4984658;28;20038;-80
2023/10/25 03:08:23;;;;;;;13.70;6.75;;;8.90;99.90;;;;;;5003950;28;20395;-80
2023/10/25 03:10:49;;;;;;;14.85;7.53;;;9.00;99.90;;;;;;5004334;28;20088;-80
2023/10/25 03:13:15;;;;;;;14.43;7.55;;;8.90;99.90;;;;;;4995732;28;20486;-81
2023/10/25 03:15:41;;;;;;;12.98;8.07;;;8.90;99.90;;;;;;4994827;28;20057;-80
2023/10/25 03:18:07;;;;;;;19.67;8.10;;;9.00;99.90;;;;;;5001049;28;20668;-81
2023/10/25 03:20:33;;;;;;;14.25;8.00;;;8.80;99.90;;;;;;4988608;28;20058;-80
2023/10/25 03:22:59;;;;;;;13.27;7.95;;;8.80;99.90;;;;;;5004163;28;20045;-80
2023/10/25 03:25:25;;;;;;;18.63;9.05;;;8.80;99.90;;;;;;4996319;28;20096;-80
2023/10/25 03:27:54;;;;;;;13.32;7.95;;;8.70;99.90;;;;;;5003186;28;20041;-80
2023/10/25 03:30:20;;;;;;;18.70;8.35;;;8.80;99.90;;;;;;4980071;28;20471;-80
2023/10/25 03:32:46;;;;;;;23.90;9.48;;;8.70;99.90;;;;;;4989527;28;20084;-80
2023/10/25 03:35:12;;;;;;;19.48;8.43;;;8.70;99.90;;;;;;4998693;28;20042;-80
2023/10/25 03:37:41;;;;;;;19.83;8.90;;;8.90;99.90;;;;;;4989221;28;20050;-80
2023/10/25 03:40:11;;;;;;;15.00;8.38;;;8.70;99.90;;;;;;4975943;28;20342;-80
2023/10/25 03:42:37;;;;;;;18.08;9.50;;;8.70;99.90;;;;;;4989214;28;20046;-80
2023/10/25 03:45:06;;;;;;;19.77;9.20;;;8.60;99.90;;;;;;4998784;28;20050;-81
2023/10/25 03:47:34;;;;;;;18.50;9.70;;;8.60;99.90;;;;;;4997955;28;20056;-80
2023/10/25 03:50:01;;;;;;;21.40;10.27;;;9.10;99.90;;;;;;4998493;28;20077;-80
2023/10/25 03:52:28;;;;;;;18.13;9.80;;;8.60;99.90;;;;;;4978379;28;20065;-80
2023/10/25 03:54:53;;;;;;;16.08;10.32;;;8.60;99.90;;;;;;4973937;28;20415;-80
2023/10/25 03:57:19;;;;;;;20.10;10.88;;;8.60;99.90;;;;;;4989390;28;20049;-79
2023/10/25 03:59:45;;;;;;;21.08;11.30;;;8.60;99.90;;;;;;4985877;28;20073;-80
2023/10/25 04:02:10;;;;;;;19.33;11.43;;;8.50;99.90;;;;;;4988939;28;20495;-80
2023/10/25 04:04:36;;;;;;;21.58;11.25;;;8.50;99.90;;;;;;4972982;28;20327;-80
2023/10/25 04:07:02;;;;;;;20.65;12.82;;;8.50;99.90;;;;;;4964981;28;20169;-80
2023/10/25 04:09:28;;;;;;;23.77;11.35;;;8.50;99.90;;;;;;4989311;28;20075;-80
2023/10/25 04:11:53;;;;;;;28.77;11.88;;;8.50;99.90;;;;;;5005997;28;20050;-80
2023/10/25 04:14:19;;;;;;;17.92;11.55;;;8.50;99.90;;;;;;4989541;28;20376;-79
2023/10/25 04:16:46;;;;;;;23.83;12.27;;;8.50;99.90;;;;;;4972238;28;20054;-79
2023/10/25 04:19:11;;;;;;;20.38;11.43;;;8.50;99.90;;;;;;4989226;28;20112;-80
2023/10/25 04:21:37;;;;;;;19.60;11.32;;;8.50;99.90;;;;;;4989863;28;20569;-79
2023/10/25 04:24:03;;;;;;;19.33;11.07;;;8.50;99.90;;;;;;4988910;28;20041;-79
2023/10/25 04:26:30;;;;;;;18.60;11.57;;;8.50;99.90;;;;;;4976900;28;20046;-79
2023/10/25 04:28:56;;;;;;;24.17;10.93;;;8.40;99.90;;;;;;4993347;28;20053;-80
2023/10/25 04:31:22;;;;;;;17.63;10.85;;;8.50;99.90;;;;;;4976705;28;20050;-80
2023/10/25 04:33:47;;;;;;;21.17;11.68;;;8.80;99.90;;;;;;4992765;28;20500;-79
2023/10/25 04:36:13;;;;;;;26.13;10.90;;;8.50;99.90;;;;;;4994734;28;20065;-80
2023/10/25 04:38:39;;;;;;;21.35;10.93;;;8.40;99.90;;;;;;4993348;28;20170;-79
2023/10/25 04:41:05;;;;;;;19.02;10.65;;;8.60;99.90;;;;;;4979978;28;20054;-80
2023/10/25 04:43:30;;;;;;;23.38;11.38;;;8.40;99.90;;;;;;4969744;28;20046;-80
2023/10/25 04:45:56;;;;;;;20.52;10.00;;;8.40;99.90;;;;;;4992842;28;20274;-80
2023/10/25 04:48:22;;;;;;;17.77;9.85;;;8.40;99.90;;;;;;4976605;28;20053;-80
2023/10/25 04:50:48;;;;;;;22.17;10.90;;;8.40;99.90;;;;;;4993289;28;20065;-81
2023/10/25 04:53:13;;;;;;;26.50;10.52;;;8.40;99.90;;;;;;4993566;28;20049;-79
2023/10/25 04:55:44;;;;;;;18.88;10.23;;;8.30;99.90;;;;;;4991734;28;20191;-79
2023/10/25 04:58:11;;;;;;;18.40;9.60;;;8.40;99.90;;;;;;5002693;28;20046;-80
2023/10/25 05:00:36;;;;;;;20.17;9.20;;;8.30;99.90;;;;;;5008258;28;20053;-81
2023/10/25 05:03:05;;;;;;;17.95;10.20;;;8.40;99.90;;;;;;5021673;28;20056;-79
2023/10/25 05:05:32;;;;;;;22.30;9.40;;;8.30;99.90;;;;;;5007989;28;20192;-79
2023/10/25 05:07:58;;;;;;;16.95;9.20;;;8.30;99.90;;;;;;4990867;28;20087;-79
2023/10/25 05:10:24;;;;;;;17.08;9.48;;;8.30;99.90;;;;;;4986900;28;20538;-80
2023/10/25 05:12:53;;;;;;;16.25;9.18;;;8.30;99.90;;;;;;4976650;28;20544;-80
2023/10/25 05:15:20;;;;;;;18.65;9.45;;;8.30;99.90;;;;;;4992943;28;20438;-79
2023/10/25 05:17:49;;;;;;;15.75;8.90;;;8.30;99.90;;;;;;4995219;28;20096;-80
2023/10/25 05:20:15;;;;;;;19.67;9.05;;;8.30;99.90;;;;;;5008922;28;20064;-80
2023/10/25 05:22:44;;;;;;;20.05;9.13;;;8.20;99.90;;;;;;5002538;28;20046;-80
2023/10/25 05:25:11;;;;;;;17.67;8.57;;;8.20;99.90;;;;;;4992826;28;20058;-80
2023/10/25 05:27:37;;;;;;;14.73;9.05;;;8.20;99.90;;;;;;4990581;28;20099;-79
2023/10/25 05:30:09;;;;;;;14.15;9.25;;;8.20;99.90;;;;;;4974404;28;20054;-80
2023/10/25 05:32:36;;;;;;;15.18;8.55;;;8.20;99.90;;;;;;4960568;28;20057;-79
2023/10/25 05:35:05;;;;;;;19.98;8.77;;;8.20;99.90;;;;;;4972322;28;20104;-80
2023/10/25 05:37:31;;;;;;;16.00;8.23;;;8.20;99.90;;;;;;4970535;28;20049;-79
2023/10/25 05:39:57;;;;;;;19.52;9.40;;;8.10;99.90;;;;;;4992297;28;20057;-80
2023/10/25 05:42:24;;;;;;;16.52;8.80;;;8.10;99.90;;;;;;4976575;28;20438;-80
2023/10/25 05:44:53;;;;;;;15.88;7.97;;;8.10;99.90;;;;;;4973867;28;20064;-80
2023/10/25 05:47:21;;;;;;;19.73;8.15;;;8.10;99.90;;;;;;4987750;28;20411;-80
2023/10/25 05:49:47;;;;;;;18.85;8.88;;;8.10;99.90;;;;;;5006458;28;20048;-80
2023/10/25 05:52:14;;;;;;;16.42;8.25;;;8.00;99.90;;;;;;5006262;28;20048;-79
2023/10/25 05:54:40;;;;;;;16.98;7.82;;;8.10;99.90;;;;;;4983635;28;20050;-79
2023/10/25 05:57:06;;;;;;;18.15;7.82;;;8.00;99.90;;;;;;4978424;28;20049;-80
2023/10/25 05:59:32;;;;;;;17.38;8.50;;;8.00;99.90;;;;;;4997719;28;20513;-79
2023/10/25 06:02:10;;;;;;;16.00;7.97;;;8.00;99.90;;;;;;4970598;28;20054;-79
2023/10/25 06:04:37;;;;;;;16.10;8.32;;;8.00;99.90;;;;;;4982297;28;20038;-80
2023/10/25 06:07:05;;;;;;;14.05;7.85;;;8.00;99.90;;;;;;4988155;28;20054;-79
2023/10/25 06:09:31;;;;;;;22.75;7.60;;;7.90;99.90;;;;;;4972136;28;20077;-80
2023/10/25 06:11:57;;;;;;;17.75;7.70;;;7.90;99.90;;;;;;4980636;28;20100;-79
2023/10/25 06:14:22;;;;;;;16.70;8.45;;;7.90;99.90;;;;;;4976469;28;20049;-81
2023/10/25 06:16:48;;;;;;;16.10;7.65;;;7.90;99.90;;;;;;4969610;28;20490;-79
2023/10/25 06:19:14;;;;;;;13.52;7.38;;;7.90;99.90;;;;;;4970247;28;20483;-79
2023/10/25 06:21:40;;;;;;;17.70;7.82;;;7.90;99.90;;;;;;4979466;28;20042;-79
2023/10/25 06:24:06;;;;;;;14.52;7.80;;;7.80;99.90;;;;;;4981802;28;20543;-79
2023/10/25 06:26:32;;;;;;;16.05;7.68;;;7.80;99.90;;;;;;4977191;28;20533;-79
2023/10/25 06:28:57;;;;;;;15.10;7.65;;;7.80;99.90;;;;;;4985279;28;20401;-79
2023/10/25 06:31:24;;;;;;;12.80;7.10;;;7.90;99.90;;;;;;4971990;28;20080;-80
2023/10/25 06:33:49;;;;;;;16.65;7.95;;;7.80;99.90;;;;;;4979926;28;20419;-78
2023/10/25 06:36:16;;;;;;;16.88;7.28;;;7.80;99.90;;;;;;4984664;28;20063;-79
2023/10/25 06:38:42;;;;;;;16.60;7.85;;;7.80;99.90;;;;;;4972033;28;20097;-79
2023/10/25 06:41:19;;;;;;;20.42;8.00;;;7.80;99.90;;;;;;4981742;28;20061;-80
2023/10/25 06:43:44;;;;;;;18.67;7.47;;;7.80;99.90;;;;;;4968538;28;20049;-79
2023/10/25 06:46:11;;;;;;;15.68;7.38;;;7.80;99.90;;;;;;4988904;28;20366;-80
2023/10/25 06:48:38;;;;;;;15.80;7.38;;;7.80;99.90;;;;;;4967678;28;20060;-80
2023/10/25 06:51:08;;;;;;;17.90;7.72;;;7.80;99.90;;;;;;4986449;28;20696;-79
2023/10/25 06:53:36;;;;;;;16.35;7.57;;;7.70;99.90;;;;;;4986292;28;20049;-79
2023/10/25 06:56:02;;;;;;;16.05;7.63;;;7.80;99.90;;;;;;4971875;28;20133;-80
2023/10/25 06:58:29;;;;;;;18.92;8.85;;;7.80;99.90;;;;;;4984972;28;20438;-79
2023/10/25 07:00:58;;;;;;;17.88;7.47;;;7.80;99.90;;;;;;4987808;28;20096;-79
2023/10/25 07:03:35;;;;;;;20.33;7.88;;;7.80;99.90;;;;;;4984206;28;20050;-80
2023/10/25 07:06:04;;;;;;;16.30;7.75;;;7.80;99.90;;;;;;4963172;28;20096;-80
2023/10/25 07:08:33;;;;;;;22.13;8.20;;;7.80;99.90;;;;;;4978952;28;20050;-79
2023/10/25 07:10:59;;;;;;;13.50;7.22;;;7.80;99.90;;;;;;4984643;28;20046;-79
2023/10/25 07:13:26;;;;;;;15.38;7.85;;;7.90;99.90;;;;;;4967069;28;20156;-79
2023/10/25 07:15:52;;;;;;;16.52;7.45;;;7.90;99.90;;;;;;4985509;28;20064;-80
2023/10/25 07:18:18;;;;;;;13.98;7.75;;;8.00;99.90;;;;;;4968610;28;20502;-79
2023/10/25 07:20:44;;;;;;;20.40;8.45;;;7.90;99.90;;;;;;4981564;28;20042;-80
2023/10/25 07:23:09;;;;;;;16.85;7.68;;;8.00;99.90;;;;;;4980751;28;20041;-80
2023/10/25 07:25:38;;;;;;;13.80;7.20;;;8.00;99.90;;;;;;4981654;28;20136;-80
2023/10/25 07:28:04;;;;;;;15.55;7.40;;;8.00;99.90;;;;;;4977743;28;20458;-79
2023/10/25 07:30:30;;;;;;;12.45;6.80;;;8.00;99.90;;;;;;4982010;28;20398;-79
2023/10/25 07:32:56;;;;;;;18.60;7.53;;;8.00;99.90;;;;;;4964827;28;20053;-80
2023/10/25 07:35:21;;;;;;;12.68;6.55;;;8.00;99.90;;;;;;4964144;28;20049;-80
2023/10/25 07:37:47;;;;;;;12.82;6.82;;;8.00;99.90;;;;;;4987610;28;20653;-79
2023/10/25 07:40:13;;;;;;;15.07;6.55;;;8.00;99.90;;;;;;4969703;28;20046;-80
2023/10/25 07:42:38;;;;;;;16.83;7.40;;;8.00;99.90;;;;;;4961930;28;20758;-79
2023/10/25 07:45:04;;;;;;;18.83;6.82;;;8.00;99.90;;;;;;4973304;28;20168;-79
2023/10/25 07:47:30;;;;;;;15.00;6.57;;;8.00;99.90;;;;;;4962436;28;20481;-79
2023/10/25 07:49:56;;;;;;;12.90;6.03;;;8.00;99.90;;;;;;4977368;28;20050;-78
2023/10/25 07:52:23;;;;;;;16.52;6.53;;;8.10;99.90;;;;;;4981620;28;20053;-79
2023/10/25 07:54:49;;;;;;;12.68;6.45;;;8.20;99.90;;;;;;4987287;28;20058;-79
2023/10/25 07:57:15;;;;;;;15.13;6.80;;;8.10;99.90;;;;;;4974214;28;20158;-79
2023/10/25 07:59:41;;;;;;;12.90;5.88;;;8.10;99.90;;;;;;4990520;28;20388;-79
2023/10/25 08:02:06;;;;;;;15.85;6.80;;;8.10;99.90;;;;;;4967632;28;20123;-79
2023/10/25 08:04:32;;;;;;;15.02;6.70;;;8.10;99.90;;;;;;4983147;28;20498;-79
2023/10/25 08:06:59;;;;;;;12.95;6.30;;;8.10;99.90;;;;;;4991539;28;20398;-79
2023/10/25 08:09:25;;;;;;;12.00;6.22;;;8.00;99.90;;;;;;4966136;28;20528;-79
2023/10/25 08:11:55;;;;;;;16.33;6.80;;;8.20;99.90;;;;;;4989821;28;20046;-79
2023/10/25 08:14:21;;;;;;;17.52;6.40;;;8.10;99.90;;;;;;4989184;28;20054;-79
2023/10/25 08:16:46;;;;;;;16.30;6.45;;;8.20;99.90;;;;;;4986835;28;20584;-79
2023/10/25 08:19:15;;;;;;;17.30;6.38;;;8.30;99.90;;;;;;4971760;28;20053;-79
2023/10/25 08:21:40;;;;;;;15.18;6.45;;;8.00;99.90;;;;;;4968533;28;20448;-79
2023/10/25 08:24:07;;;;;;;11.13;6.18;;;8.20;99.90;;;;;;4975024;28;20093;-80
2023/10/25 08:26:38;;;;;;;15.38;6.53;;;8.20;99.90;;;;;;4974141;28;20515;-79
2023/10/25 08:29:05;;;;;;;14.45;6.88;;;8.30;99.90;;;;;;4971523;28;20069;-79
2023/10/25 08:31:31;;;;;;;15.80;6.35;;;8.30;99.90;;;;;;4990218;28;20046;-79
2023/10/25 08:33:56;;;;;;;15.45;7.05;;;8.30;99.90;;;;;;4991192;28;20573;-79
2023/10/25 08:36:23;;;;;;;15.23;6.65;;;8.30;99.90;;;;;;4989101;28;20407;-79
2023/10/25 08:38:49;;;;;;;14.07;7.10;;;8.40;99.90;;;;;;4989094;28;20462;-79
2023/10/25 08:41:17;;;;;;;17.40;6.47;;;8.40;99.90;;;;;;4973159;28;20054;-79
2023/10/25 08:43:44;;;;;;;19.80;7.22;;;8.40;99.90;;;;;;4972656;28;20042;-79
2023/10/25 08:46:13;;;;;;;14.90;6.13;;;8.50;99.90;;;;;;4973363;28;20494;-79
2023/10/25 08:48:38;;;;;;;12.77;7.20;;;8.50;99.90;;;;;;4991101;28;20046;-79
2023/10/25 08:51:05;;;;;;;12.57;6.65;;;8.60;99.90;;;;;;4974274;28;20393;-80
2023/10/25 08:53:31;;;;;;;12.23;7.18;;;8.50;99.90;;;;;;4990621;28;20054;-79
2023/10/25 08:55:58;;;;;;;13.40;6.22;;;8.90;99.90;;;;;;4990238;28;20582;-79
2023/10/25 08:58:24;;;;;;;14.90;6.22;;;8.70;99.90;;;;;;4989547;28;20506;-79
2023/10/25 09:00:52;;;;;;;13.43;6.57;;;8.70;99.90;;;;;;4970153;28;20209;-79
2023/10/25 09:03:30;;;;;;;10.63;6.18;;;8.70;99.90;;;;;;4991976;28;20050;-79
2023/10/25 09:05:57;;;;;;;16.35;7.00;;;9.20;99.90;;;;;;4987526;28;20065;-79
2023/10/25 09:08:24;;;;;;;13.55;6.38;;;8.70;99.90;;;;;;4986876;28;20111;-79
2023/10/25 09:10:54;;;;;;;16.13;6.95;;;8.70;99.90;;;;;;4969601;28;20075;-79
2023/10/25 09:13:24;;;;;;;12.88;6.47;;;8.80;99.90;;;;;;5001308;28;20404;-79
2023/10/25 09:15:50;;;;;;;15.02;6.80;;;8.80;99.90;;;;;;4998646;28;20096;-79
2023/10/25 09:18:16;;;;;;;15.80;6.82;;;8.90;99.90;;;;;;4989506;28;20068;-81
2023/10/25 09:20:49;;;;;;;16.15;6.60;;;8.80;99.90;;;;;;4996384;28;20502;-78
2023/10/25 09:23:15;;;;;;;15.30;6.43;;;8.90;99.90;;;;;;4996830;28;20479;-80
2023/10/25 09:25:43;;;;;;;18.08;6.72;;;8.90;99.90;;;;;;4984945;28;20060;-78
2023/10/25 09:28:36;;;;;;;15.52;6.93;;;9.00;99.90;;;;;;5000629;28;20053;-78
2023/10/25 09:31:01;;;;;;;16.50;6.75;;;9.00;99.90;;;;;;4973481;28;20050;-78
2023/10/25 09:33:29;;;;;;;14.57;6.53;;;9.40;99.90;;;;;;4982106;28;20052;-78
2023/10/25 09:35:56;;;;;;;12.88;6.70;;;9.10;99.90;;;;;;4985746;28;20096;-78
2023/10/25 09:38:22;;;;;;;19.02;6.43;;;9.10;99.90;;;;;;5001926;28;20128;-78
2023/10/25 09:40:49;;;;;;;14.50;7.03;;;9.20;99.90;;;;;;4989209;28;20506;-78
2023/10/25 09:43:20;;;;;;;15.30;6.10;;;9.10;99.90;;;;;;4983088;28;20073;-79
2023/10/25 09:45:56;;;;;;;15.40;5.80;;;9.20;99.90;;;;;;4969069;28;20054;-79
2023/10/25 09:48:22;;;;;;;11.95;5.97;;;9.20;99.90;;;;;;4978741;28;20088;-79
2023/10/25 09:51:06;;;;;;;15.80;6.32;;;9.20;99.90;;;;;;4969178;28;20078;-79
2023/10/25 09:53:58;;;;;;;10.38;5.93;;;9.20;99.90;;;;;;4967995;28;20053;-78
2023/10/25 09:56:24;;;;;;;12.30;5.95;;;9.30;99.90;;;;;;4973028;28;20263;-80
2023/10/25 09:58:51;;;;;;;13.40;6.22;;;9.30;99.90;;;;;;4971971;28;20775;-79
2023/10/25 10:01:17;;;;;;;10.90;6.07;;;9.40;99.90;;;;;;4971875;28;20060;-78
2023/10/25 10:04:09;;;;;;;11.15;5.47;;;9.50;99.90;;;;;;4978444;28;20046;-79
2023/10/25 10:06:53;;;;;;;12.57;6.35;;;9.50;99.90;;;;;;4970749;28;20061;-79
2023/10/25 10:09:21;;;;;;;11.40;5.97;;;9.50;99.90;;;;;;4984143;28;20539;-79
2023/10/25 10:11:52;;;;;;;13.95;6.22;;;9.50;99.90;;;;;;4964036;28;20123;-79
2023/10/25 10:14:35;;;;;;;12.40;6.22;;;9.60;99.90;;;;;;4967802;28;20050;-80
2023/10/25 10:17:14;;;;;;;16.80;6.18;;;9.60;99.90;;;;;;4957453;28;20054;-79
2023/10/25 10:19:48;;;;;;;14.65;5.65;;;9.60;99.90;;;;;;4972486;28;20476;-79
2023/10/25 10:22:16;;;;;;;12.55;5.57;;;9.70;99.90;;;;;;4959049;28;20041;-80
2023/10/25 10:24:48;;;;;;;14.27;5.78;;;9.70;99.90;;;;;;4975577;28;20046;-80
2023/10/25 10:27:19;;;;;;;11.88;5.30;;;9.80;99.90;;;;;;4964729;28;20053;-79
2023/10/25 10:29:48;;;;;;;13.90;5.28;;;10.10;99.90;;;;;;4971470;28;20481;-80
2023/10/25 10:32:15;;;;;;;12.90;5.63;;;10.00;99.90;;;;;;4986280;28;20069;-80
2023/10/25 10:34:41;;;;;;;12.55;5.50;;;9.90;99.90;;;;;;4987759;28;20081;-79
2023/10/25 10:37:17;;;;;;;14.68;5.82;;;10.00;99.90;;;;;;4980918;28;20362;-79
2023/10/25 10:40:03;;;;;;;11.45;5.05;;;10.00;99.90;;;;;;4977325;28;20058;-80
2023/10/25 10:42:29;;;;;;;12.73;4.80;;;10.10;99.90;;;;;;4977147;28;20071;-80
2023/10/25 10:44:56;;;;;;;13.27;5.68;;;10.10;99.90;;;;;;4988409;28;20045;-80
2023/10/25 10:47:33;;;;;;;14.13;5.18;;;10.10;99.90;;;;;;4994396;28;20107;-80
2023/10/25 10:50:10;;;;;;;11.10;5.90;;;10.20;99.90;;;;;;4981762;28;20049;-79
2023/10/25 10:52:35;;;;;;;13.50;5.13;;;10.20;99.90;;;;;;4969958;28;20485;-80
2023/10/25 10:55:01;;;;;;;11.98;5.05;;;10.20;99.90;;;;;;4985981;28;20066;-79
2023/10/25 10:57:27;;;;;;;12.48;5.35;;;10.30;99.90;;;;;;4986113;28;20073;-78
2023/10/25 10:59:55;;;;;;;8.48;4.55;;;10.30;99.90;;;;;;4969150;28;20612;-78
2023/10/25 11:02:25;;;;;;;12.13;5.60;;;10.40;99.90;;;;;;4984655;28;20573;-78
2023/10/25 11:04:51;;;;;;;10.93;5.22;;;10.40;99.90;;;;;;4984656;28;20056;-78
2023/10/25 11:07:20;;;;;;;12.85;5.53;;;10.50;99.90;;;;;;4973524;28;20054;-78
2023/10/25 11:09:46;;;;;;;12.13;5.22;;;10.50;99.90;;;;;;4949512;28;20117;-78
2023/10/25 11:12:14;;;;;;;9.90;4.82;;;10.50;99.90;;;;;;4969125;28;20300;-78
2023/10/25 11:14:45;;;;;;;11.30;5.75;;;10.50;99.90;;;;;;4985336;28;20054;-78
2023/10/25 11:17:12;;;;;;;13.63;5.50;;;10.60;99.90;;;;;;4986588;28;20061;-78
2023/10/25 11:19:37;;;;;;;10.60;4.70;;;10.70;99.90;;;;;;4985953;28;20121;-78
2023/10/25 11:22:03;;;;;;;11.50;5.20;;;10.70;99.90;;;;;;4987158;28;20140;-78
2023/10/25 11:24:30;;;;;;;20.63;5.63;;;10.70;99.90;;;;;;4985628;28;20046;-78
2023/10/25 11:26:56;;;;;;;17.98;5.82;;;10.70;99.90;;;;;;4970903;28;20046;-78
2023/10/25 11:29:25;;;;;;;13.75;5.43;;;10.80;99.90;;;;;;4982866;28;20041;-78
2023/10/25 11:31:55;;;;;;;10.27;4.93;;;10.80;99.90;;;;;;4970615;28;20053;-79
2023/10/25 11:34:21;;;;;;;16.00;5.93;;;10.90;99.90;;;;;;4990166;28;20049;-79
2023/10/25 11:36:48;;;;;;;11.38;5.13;;;10.90;99.90;;;;;;4988735;28;20112;-79
2023/10/25 11:39:14;;;;;;;11.07;5.10;;;10.90;99.90;;;;;;4987263;28;20462;-78
2023/10/25 11:41:42;;;;;;;11.02;4.90;;;11.20;99.90;;;;;;4986347;28;20120;-79
2023/10/25 11:44:08;;;;;;;12.52;4.90;;;11.00;99.90;;;;;;4970375;28;20044;-78
2023/10/25 11:46:38;;;;;;;10.20;4.50;;;11.00;99.90;;;;;;4987353;28;20510;-78
2023/10/25 11:49:05;;;;;;;13.83;4.87;;;11.10;99.90;;;;;;4986577;28;20379;-79
2023/10/25 11:51:35;;;;;;;15.65;5.25;;;11.10;99.90;;;;;;4986122;28;20082;-79
2023/10/25 11:54:02;;;;;;;9.88;4.50;;;11.20;99.90;;;;;;4986618;28;20056;-78
2023/10/25 11:56:28;;;;;;;13.50;4.53;;;11.20;99.90;;;;;;4986139;28;20358;-79
2023/10/25 11:58:54;;;;;;;12.02;4.43;;;11.20;99.90;;;;;;4969134;28;20053;-79
2023/10/25 12:01:20;;;;;;;10.82;4.40;;;11.30;99.90;;;;;;4968430;28;20592;-78
2023/10/25 12:03:46;;;;;;;10.85;4.90;;;11.30;99.90;;;;;;4968023;28;20442;-79
2023/10/25 12:06:12;;;;;;;10.88;3.83;;;11.50;99.90;;;;;;4985527;28;20056;-78
2023/10/25 12:08:42;;;;;;;13.82;4.70;;;11.40;99.90;;;;;;4985212;28;20042;-79
2023/10/25 12:11:11;;;;;;;10.18;4.40;;;11.40;99.90;;;;;;4985352;28;20333;-79
2023/10/25 12:13:41;;;;;;;10.43;4.18;;;11.40;99.90;;;;;;4986128;28;20437;-79
2023/10/25 12:16:08;;;;;;;11.70;4.22;;;11.50;99.90;;;;;;4985735;28;20057;-78
2023/10/25 12:18:36;;;;;;;10.63;3.75;;;11.50;99.90;;;;;;4980490;28;20074;-79
2023/10/25 12:21:06;;;;;;;10.98;4.20;;;11.50;99.90;;;;;;4950828;28;20411;-78
2023/10/25 12:23:32;;;;;;;11.07;4.25;;;11.50;99.90;;;;;;4966355;28;20054;-78
2023/10/25 12:25:59;;;;;;;13.02;4.03;;;11.50;99.90;;;;;;4986178;28;20089;-78
2023/10/25 12:28:24;;;;;;;11.02;4.13;;;11.50;99.90;;;;;;4984743;28;20089;-78
2023/10/25 12:30:53;;;;;;;9.75;3.15;;;11.50;99.90;;;;;;4978669;28;20081;-78
2023/10/25 12:33:19;;;;;;;15.52;4.15;;;11.50;99.90;;;;;;4966414;28;20486;-77
2023/10/25 12:35:45;;;;;;;10.48;3.83;;;11.50;99.90;;;;;;4970895;28;20038;-78
2023/10/25 12:38:11;;;;;;;7.47;3.20;;;11.50;99.90;;;;;;4985456;28;20233;-77
2023/10/25 12:40:36;;;;;;;11.50;3.80;;;11.40;99.90;;;;;;4968440;28;20106;-77
2023/10/25 12:43:02;;;;;;;9.50;3.40;;;11.40;99.90;;;;;;4985756;28;20574;-78
2023/10/25 12:45:29;;;;;;;9.02;3.33;;;11.50;99.90;;;;;;4988242;28;20406;-78